Gabriella — OJHP — position and weather

sailwx.info

Track history (hours):
 
Tides and Currents Weather Stations Pressure Air Temp Water Temp Dewpoint Dewpoint Depression Visibility Wind Speed Wind Dir Waves Ship Positions

Gabriella

Last reported at 2014-Sep-15 03:33 UTC. Time now 2014-Sep-15 04:02 UTC.
Position N 59°42' E 023°23'.

Length 172 m; draft 6.5 m.

Type: Ship (hazmat cat A). MMSI: 230361000.

Date/timePositionNaut miles runAvg speedWind from/ knotsBaromVisibWave heightAir tempDewpointWater temp
2014-Sep-15 03:33N 59°42' E 023°23'1818.1
2014-Sep-15 02:33N 59°38' E 022°48'2218.1
2014-Sep-15 01:19N 59°33' E 022°04'1317.7
2014-Sep-15 00:33N 59°33' E 021°38'9811.6
2014-Sep-14 16:06N 59°27' E 018°26'6 9.3
2014-Sep-14 15:30N 59°22' E 018°27'1010.5
2014-Sep-14 14:33N 59°19' E 018°08'1 1.1
2014-Sep-14 13:33N 59°19' E 018°06'0 0.0
2014-Sep-14 12:34N 59°19' E 018°06'0 0.0
2014-Sep-14 11:33N 59°19' E 018°06'0 0.0
2014-Sep-14 10:34N 59°19' E 018°06'0 0.0
2014-Sep-14 09:33N 59°19' E 018°06'0 0.0
2014-Sep-14 08:34N 59°19' E 018°06'2 2.1
2014-Sep-14 07:33N 59°19' E 018°10'10310.3
2014-Sep-13 21:34N 59°34' E 021°31'3617.5
2014-Sep-13 19:31N 59°36' E 022°42'1817.8
2014-Sep-13 18:32N 59°40' E 023°16'1717.8
2014-Sep-13 17:33N 59°45' E 023°49'3617.7
2014-Sep-13 15:31N 59°59' E 024°54'1111.1
2014-Sep-13 14:33N 60°10' E 024°58'0 0.0
2014-Sep-13 13:33N 60°10' E 024°58'0 0.0
2014-Sep-13 12:33N 60°10' E 024°58'0 0.0
2014-Sep-13 11:33N 60°10' E 024°58'0 0.0
2014-Sep-13 10:33N 60°10' E 024°58'0 0.0
2014-Sep-13 09:30N 60°10' E 024°58'0 0.0
2014-Sep-13 08:33N 60°10' E 024°58'0 0.0
2014-Sep-13 07:33N 60°10' E 024°58'6 5.6
2014-Sep-13 06:33N 60°04' E 024°58'1817.4
2014-Sep-13 05:30N 59°52' E 024°31'1718.3
2014-Sep-13 04:33N 59°47' E 023°58'1818.3
2014-Sep-13 03:33N 59°42' E 023°23'4018.3
2014-Sep-13 01:23N 59°33' E 022°06'1517.9
2014-Sep-13 00:34N 59°33' E 021°37'9711.6
2014-Sep-12 16:12N 59°27' E 018°26'7 6.4
2014-Sep-12 15:09N 59°22' E 018°18'610.8
2014-Sep-12 14:33N 59°19' E 018°07'0 0.3
2014-Sep-12 13:32N 59°19' E 018°06'0 0.0
2014-Sep-12 12:32N 59°19' E 018°06'0 0.0
2014-Sep-12 11:32N 59°19' E 018°06'0 0.0
2014-Sep-12 10:32N 59°19' E 018°06'0 0.0
2014-Sep-12 09:32N 59°19' E 018°06'0 0.0
2014-Sep-12 08:32N 59°19' E 018°06'2 2.1
2014-Sep-12 07:33N 59°19' E 018°10'91 9.8
2014-Sep-11 22:17N 59°37' E 021°05'1317.4
2014-Sep-11 21:34N 59°34' E 021°29'5317.2
2014-Sep-11 18:28N 59°39' E 023°14'1617.4
2014-Sep-11 17:34N 59°44' E 023°44'1817.4
2014-Sep-11 16:31N 59°49' E 024°19'1917.4
2014-Sep-11 15:25N 59°58' E 024°52'1213.2
2014-Sep-11 14:31N 60°10' E 024°58'0 0.1
2014-Sep-11 13:31N 60°10' E 024°58'0 0.0
2014-Sep-11 12:31N 60°10' E 024°58'0 0.0
2014-Sep-11 11:31N 60°10' E 024°58'0 0.0
2014-Sep-11 10:31N 60°10' E 024°58'0 0.0
2014-Sep-11 09:31N 60°10' E 024°58'0 0.0
2014-Sep-11 08:31N 60°10' E 024°58'0 0.0
2014-Sep-11 07:31N 60°10' E 024°58'6 5.9
2014-Sep-11 06:33N 60°04' E 024°58'1817.5
2014-Sep-11 05:33N 59°53' E 024°32'1818.2
2014-Sep-11 04:33N 59°46' E 023°58'1918.5
2014-Sep-11 03:33N 59°42' E 023°22'15113.3
2014-Sep-10 16:12N 59°27' E 018°26'7 6.2
2014-Sep-10 15:09N 59°22' E 018°18'610.8
2014-Sep-10 14:33N 59°19' E 018°07'0 0.3
2014-Sep-10 13:32N 59°19' E 018°06'0 0.0
2014-Sep-10 12:32N 59°19' E 018°06'0 0.0
2014-Sep-10 11:32N 59°19' E 018°06'0 0.0
2014-Sep-10 10:32N 59°19' E 018°06'0 0.0
2014-Sep-10 09:32N 59°19' E 018°06'0 0.0
2014-Sep-10 08:32N 59°19' E 018°06'2 2.1
2014-Sep-10 07:33N 59°19' E 018°10'15511.9
2014-Sep-09 18:33N 59°38' E 023°12'1717.4
2014-Sep-09 17:33N 59°44' E 023°44'1817.5
2014-Sep-09 16:33N 59°49' E 024°18'1917.0
2014-Sep-09 15:25N 59°58' E 024°52'1213.8
2014-Sep-09 14:33N 60°10' E 024°58'0 0.1
2014-Sep-09 13:33N 60°10' E 024°58'0 0.0
2014-Sep-09 12:30N 60°10' E 024°58'0 0.0
2014-Sep-09 11:33N 60°10' E 024°58'0 0.0
2014-Sep-09 10:33N 60°10' E 024°58'0 0.0
2014-Sep-09 09:30N 60°10' E 024°58'0 0.0
2014-Sep-09 08:33N 60°10' E 024°58'0 0.0
2014-Sep-09 07:12N 60°10' E 024°58'6 8.9
2014-Sep-09 06:33N 60°04' E 024°58'1817.0
2014-Sep-09 05:31N 59°53' E 024°31'1718.0
2014-Sep-09 04:33N 59°46' E 023°59'1818.1
2014-Sep-09 03:33N 59°42' E 023°24'15212.6
2014-Sep-08 15:29N 59°22' E 018°27'1010.9
2014-Sep-08 14:33N 59°19' E 018°08'1 0.9
2014-Sep-08 13:32N 59°19' E 018°06'0 0.0
2014-Sep-08 12:20N 59°19' E 018°06'0 0.0
2014-Sep-08 11:32N 59°19' E 018°06'0 0.0
2014-Sep-08 10:32N 59°19' E 018°06'0 0.0
2014-Sep-08 09:32N 59°19' E 018°06'0 0.0
2014-Sep-08 08:32N 59°19' E 018°06'2 2.4
2014-Sep-08 07:30N 59°20' E 018°11'13611.4
2014-Sep-07 19:33N 59°36' E 022°36'1817.5
2014-Sep-07 18:33N 59°38' E 023°10'1717.2
2014-Sep-07 17:33N 59°43' E 023°43'1717.2
2014-Sep-07 16:33N 59°49' E 024°15'1717.1
2014-Sep-07 15:33N 59°57' E 024°46'1414.0
2014-Sep-07 14:31N 60°10' E 024°58'0 0.1
2014-Sep-07 13:33N 60°10' E 024°58'0 0.0
2014-Sep-07 12:30N 60°10' E 024°58'0 0.0
2014-Sep-07 11:27N 60°10' E 024°58'0 0.0
2014-Sep-07 10:30N 60°10' E 024°58'0 0.0
2014-Sep-07 09:30N 60°10' E 024°58'0 0.0
2014-Sep-07 08:33N 60°10' E 024°58'0 0.0
2014-Sep-07 07:33N 60°10' E 024°58'6 6.0
2014-Sep-07 06:33N 60°04' E 024°57'1717.4
2014-Sep-07 05:33N 59°52' E 024°32'1818.2
2014-Sep-07 04:33N 59°45' E 023°58'1818.2
2014-Sep-07 03:33N 59°40' E 023°23'16212.4
2014-Sep-06 14:31N 59°19' E 018°07'1 0.8
2014-Sep-06 13:32N 59°19' E 018°06'0 0.0
2014-Sep-06 12:32N 59°19' E 018°06'0 0.0
2014-Sep-06 11:32N 59°19' E 018°06'0 0.0
2014-Sep-06 10:32N 59°19' E 018°06'0 0.0
2014-Sep-06 09:32N 59°19' E 018°06'0 0.0
2014-Sep-06 08:32N 59°19' E 018°06'15611.1
2014-Sep-05 18:32N 59°39' E 023°10'1717.2
2014-Sep-05 17:33N 59°43' E 023°42'1817.3
2014-Sep-05 16:33N 59°49' E 024°15'1817.2
2014-Sep-05 15:31N 59°57' E 024°46'1414.6
2014-Sep-05 14:33N 60°10' E 024°58'0 0.3
2014-Sep-05 13:26N 60°10' E 024°58'0 0.0
2014-Sep-05 12:26N 60°10' E 024°58'0 0.0
2014-Sep-05 11:32N 60°10' E 024°58'0 0.0
2014-Sep-05 10:26N 60°10' E 024°58'0 0.0
2014-Sep-05 09:32N 60°10' E 024°58'0 0.0
2014-Sep-05 08:32N 60°10' E 024°58'0 0.0
2014-Sep-05 07:20N 60°10' E 024°58'6 7.7
2014-Sep-05 06:33N 60°04' E 024°58'1817.3
2014-Sep-05 05:29N 59°52' E 024°30'1717.9
2014-Sep-05 04:33N 59°46' E 023°58'  
Track history (hours):
 
Tides and Currents Weather Stations Pressure Air Temp Water Temp Dewpoint Dewpoint Depression Visibility Wind Speed Wind Dir Waves Ship Positions

Gabriella

Last reported at 2014-Sep-15 03:33 UTC. Time now 2014-Sep-15 04:02 UTC.
Position N 59°42' E 023°23'.

Length 172 m; draft 6.5 m.

Type: Ship (hazmat cat A). MMSI: 230361000.

Date/timePositionNaut miles runAvg speedWind from/ knotsBaromVisibWave heightAir tempDewpointWater temp
2014-Sep-15 03:33N 59°42' E 023°23'1818.1
2014-Sep-15 02:33N 59°38' E 022°48'2218.1
2014-Sep-15 01:19N 59°33' E 022°04'1317.7
2014-Sep-15 00:33N 59°33' E 021°38'9811.6
2014-Sep-14 16:06N 59°27' E 018°26'6 9.3
2014-Sep-14 15:30N 59°22' E 018°27'1010.5
2014-Sep-14 14:33N 59°19' E 018°08'1 1.1
2014-Sep-14 13:33N 59°19' E 018°06'0 0.0
2014-Sep-14 12:34N 59°19' E 018°06'0 0.0
2014-Sep-14 11:33N 59°19' E 018°06'0 0.0
2014-Sep-14 10:34N 59°19' E 018°06'0 0.0
2014-Sep-14 09:33N 59°19' E 018°06'0 0.0
2014-Sep-14 08:34N 59°19' E 018°06'2 2.1
2014-Sep-14 07:33N 59°19' E 018°10'10310.3
2014-Sep-13 21:34N 59°34' E 021°31'3617.5
2014-Sep-13 19:31N 59°36' E 022°42'1817.8
2014-Sep-13 18:32N 59°40' E 023°16'1717.8
2014-Sep-13 17:33N 59°45' E 023°49'3617.7
2014-Sep-13 15:31N 59°59' E 024°54'1111.1
2014-Sep-13 14:33N 60°10' E 024°58'0 0.0
2014-Sep-13 13:33N 60°10' E 024°58'0 0.0
2014-Sep-13 12:33N 60°10' E 024°58'0 0.0
2014-Sep-13 11:33N 60°10' E 024°58'0 0.0
2014-Sep-13 10:33N 60°10' E 024°58'0 0.0
2014-Sep-13 09:30N 60°10' E 024°58'0 0.0
2014-Sep-13 08:33N 60°10' E 024°58'0 0.0
2014-Sep-13 07:33N 60°10' E 024°58'6 5.6
2014-Sep-13 06:33N 60°04' E 024°58'1817.4
2014-Sep-13 05:30N 59°52' E 024°31'1718.3
2014-Sep-13 04:33N 59°47' E 023°58'1818.3
2014-Sep-13 03:33N 59°42' E 023°23'4018.3
2014-Sep-13 01:23N 59°33' E 022°06'1517.9
2014-Sep-13 00:34N 59°33' E 021°37'9711.6
2014-Sep-12 16:12N 59°27' E 018°26'7 6.4
2014-Sep-12 15:09N 59°22' E 018°18'610.8
2014-Sep-12 14:33N 59°19' E 018°07'0 0.3
2014-Sep-12 13:32N 59°19' E 018°06'0 0.0
2014-Sep-12 12:32N 59°19' E 018°06'0 0.0
2014-Sep-12 11:32N 59°19' E 018°06'0 0.0
2014-Sep-12 10:32N 59°19' E 018°06'0 0.0
2014-Sep-12 09:32N 59°19' E 018°06'0 0.0
2014-Sep-12 08:32N 59°19' E 018°06'2 2.1
2014-Sep-12 07:33N 59°19' E 018°10'91 9.8
2014-Sep-11 22:17N 59°37' E 021°05'1317.4
2014-Sep-11 21:34N 59°34' E 021°29'5317.2
2014-Sep-11 18:28N 59°39' E 023°14'1617.4
2014-Sep-11 17:34N 59°44' E 023°44'1817.4
2014-Sep-11 16:31N 59°49' E 024°19'1917.4
2014-Sep-11 15:25N 59°58' E 024°52'1213.2
2014-Sep-11 14:31N 60°10' E 024°58'0 0.1
2014-Sep-11 13:31N 60°10' E 024°58'0 0.0
2014-Sep-11 12:31N 60°10' E 024°58'0 0.0
2014-Sep-11 11:31N 60°10' E 024°58'0 0.0
2014-Sep-11 10:31N 60°10' E 024°58'0 0.0
2014-Sep-11 09:31N 60°10' E 024°58'0 0.0
2014-Sep-11 08:31N 60°10' E 024°58'0 0.0
2014-Sep-11 07:31N 60°10' E 024°58'6 5.9
2014-Sep-11 06:33N 60°04' E 024°58'1817.5
2014-Sep-11 05:33N 59°53' E 024°32'1818.2
2014-Sep-11 04:33N 59°46' E 023°58'1918.5
2014-Sep-11 03:33N 59°42' E 023°22'15113.3
2014-Sep-10 16:12N 59°27' E 018°26'7 6.2
2014-Sep-10 15:09N 59°22' E 018°18'610.8
2014-Sep-10 14:33N 59°19' E 018°07'0 0.3
2014-Sep-10 13:32N 59°19' E 018°06'0 0.0
2014-Sep-10 12:32N 59°19' E 018°06'0 0.0
2014-Sep-10 11:32N 59°19' E 018°06'0 0.0
2014-Sep-10 10:32N 59°19' E 018°06'0 0.0
2014-Sep-10 09:32N 59°19' E 018°06'0 0.0
2014-Sep-10 08:32N 59°19' E 018°06'2 2.1
2014-Sep-10 07:33N 59°19' E 018°10'15511.9
2014-Sep-09 18:33N 59°38' E 023°12'1717.4
2014-Sep-09 17:33N 59°44' E 023°44'1817.5
2014-Sep-09 16:33N 59°49' E 024°18'1917.0
2014-Sep-09 15:25N 59°58' E 024°52'1213.8
2014-Sep-09 14:33N 60°10' E 024°58'0 0.1
2014-Sep-09 13:33N 60°10' E 024°58'0 0.0
2014-Sep-09 12:30N 60°10' E 024°58'0 0.0
2014-Sep-09 11:33N 60°10' E 024°58'0 0.0
2014-Sep-09 10:33N 60°10' E 024°58'0 0.0
2014-Sep-09 09:30N 60°10' E 024°58'0 0.0
2014-Sep-09 08:33N 60°10' E 024°58'0 0.0
2014-Sep-09 07:12N 60°10' E 024°58'6 8.9
2014-Sep-09 06:33N 60°04' E 024°58'1817.0
2014-Sep-09 05:31N 59°53' E 024°31'1718.0
2014-Sep-09 04:33N 59°46' E 023°59'1818.1
2014-Sep-09 03:33N 59°42' E 023°24'15212.6
2014-Sep-08 15:29N 59°22' E 018°27'1010.9
2014-Sep-08 14:33N 59°19' E 018°08'1 0.9
2014-Sep-08 13:32N 59°19' E 018°06'0 0.0
2014-Sep-08 12:20N 59°19' E 018°06'0 0.0
2014-Sep-08 11:32N 59°19' E 018°06'0 0.0
2014-Sep-08 10:32N 59°19' E 018°06'0 0.0
2014-Sep-08 09:32N 59°19' E 018°06'0 0.0
2014-Sep-08 08:32N 59°19' E 018°06'2 2.4
2014-Sep-08 07:30N 59°20' E 018°11'13611.4
2014-Sep-07 19:33N 59°36' E 022°36'1817.5
2014-Sep-07 18:33N 59°38' E 023°10'1717.2
2014-Sep-07 17:33N 59°43' E 023°43'1717.2
2014-Sep-07 16:33N 59°49' E 024°15'1717.1
2014-Sep-07 15:33N 59°57' E 024°46'1414.0
2014-Sep-07 14:31N 60°10' E 024°58'0 0.1
2014-Sep-07 13:33N 60°10' E 024°58'0 0.0
2014-Sep-07 12:30N 60°10' E 024°58'0 0.0
2014-Sep-07 11:27N 60°10' E 024°58'0 0.0
2014-Sep-07 10:30N 60°10' E 024°58'0 0.0
2014-Sep-07 09:30N 60°10' E 024°58'0 0.0
2014-Sep-07 08:33N 60°10' E 024°58'0 0.0
2014-Sep-07 07:33N 60°10' E 024°58'6 6.0
2014-Sep-07 06:33N 60°04' E 024°57'1717.4
2014-Sep-07 05:33N 59°52' E 024°32'1818.2
2014-Sep-07 04:33N 59°45' E 023°58'1818.2
2014-Sep-07 03:33N 59°40' E 023°23'16212.4
2014-Sep-06 14:31N 59°19' E 018°07'1 0.8
2014-Sep-06 13:32N 59°19' E 018°06'0 0.0
2014-Sep-06 12:32N 59°19' E 018°06'0 0.0
2014-Sep-06 11:32N 59°19' E 018°06'0 0.0
2014-Sep-06 10:32N 59°19' E 018°06'0 0.0
2014-Sep-06 09:32N 59°19' E 018°06'0 0.0
2014-Sep-06 08:32N 59°19' E 018°06'15611.1
2014-Sep-05 18:32N 59°39' E 023°10'1717.2
2014-Sep-05 17:33N 59°43' E 023°42'1817.3
2014-Sep-05 16:33N 59°49' E 024°15'1817.2
2014-Sep-05 15:31N 59°57' E 024°46'1414.6
2014-Sep-05 14:33N 60°10' E 024°58'0 0.3
2014-Sep-05 13:26N 60°10' E 024°58'0 0.0
2014-Sep-05 12:26N 60°10' E 024°58'0 0.0
2014-Sep-05 11:32N 60°10' E 024°58'0 0.0
2014-Sep-05 10:26N 60°10' E 024°58'0 0.0
2014-Sep-05 09:32N 60°10' E 024°58'0 0.0
2014-Sep-05 08:32N 60°10' E 024°58'0 0.0
2014-Sep-05 07:20N 60°10' E 024°58'6 7.7
2014-Sep-05 06:33N 60°04' E 024°58'1817.3
2014-Sep-05 05:29N 59°52' E 024°30'1717.9
2014-Sep-05 04:33N 59°46' E 023°58'  

Dump ship's entire track history